createdAt,value
2018-12-26T00:00:32.729Z,70.90
2018-12-26T00:01:33.856Z,71.00
2018-12-26T00:02:34.969Z,70.80
2018-12-26T00:03:35.995Z,70.80
2018-12-26T00:04:37.016Z,71.20
2018-12-26T00:05:38.140Z,71.50
2018-12-26T00:06:39.161Z,71.20
2018-12-26T00:07:40.233Z,70.70
2018-12-26T00:08:41.270Z,71.00
2018-12-26T00:09:42.286Z,71.00
2018-12-26T00:10:43.317Z,71.20
2018-12-26T00:11:44.336Z,71.40
2018-12-26T00:12:45.373Z,71.50
2018-12-26T00:13:46.397Z,71.40
2018-12-26T00:14:47.414Z,70.60
2018-12-26T00:15:48.436Z,70.50
2018-12-26T00:16:49.494Z,70.40
2018-12-26T00:17:50.522Z,70.60
2018-12-26T00:18:51.549Z,70.40
2018-12-26T00:19:52.681Z,70.50
2018-12-26T00:20:53.784Z,70.40
2018-12-26T00:21:54.804Z,70.10
2018-12-26T00:22:55.817Z,70.20
2018-12-26T00:23:56.945Z,69.90
2018-12-26T00:24:57.984Z,69.50
2018-12-26T00:26:01.778Z,69.40
2018-12-26T00:27:01.912Z,69.60
2018-12-26T00:28:02.924Z,69.60
2018-12-26T00:29:03.960Z,69.60
2018-12-26T00:30:04.977Z,69.10
2018-12-26T00:31:05.997Z,69.30
2018-12-26T00:32:07.017Z,69.50
2018-12-26T00:33:08.028Z,69.80
2018-12-26T00:34:09.066Z,69.90
2018-12-26T00:35:10.089Z,69.80
2018-12-26T00:36:11.133Z,70.00
2018-12-26T00:37:12.212Z,69.70
2018-12-26T00:38:13.285Z,69.20
2018-12-26T00:39:14.552Z,68.90
2018-12-26T00:40:15.573Z,69.10
2018-12-26T00:41:16.876Z,69.10
2018-12-26T00:42:17.909Z,69.20
2018-12-26T00:43:18.937Z,68.60
2018-12-26T00:44:19.961Z,68.70
2018-12-26T00:45:20.988Z,68.70
2018-12-26T00:46:22.029Z,68.00
2018-12-26T00:47:23.045Z,68.20
2018-12-26T00:48:24.069Z,68.30
2018-12-26T00:49:25.112Z,68.50
2018-12-26T00:50:26.213Z,69.80
2018-12-26T00:51:27.236Z,69.10
2018-12-26T00:52:28.282Z,69.00
2018-12-26T00:53:29.300Z,68.80
2018-12-26T00:54:30.329Z,69.00
2018-12-26T00:55:31.588Z,69.20
2018-12-26T00:56:32.601Z,69.10
2018-12-26T00:57:33.627Z,69.00
2018-12-26T00:58:34.652Z,68.60
2018-12-26T00:59:35.882Z,68.60
2018-12-26T01:00:36.909Z,68.50
2018-12-26T01:01:37.928Z,68.20
2018-12-26T01:02:38.949Z,68.40
2018-12-26T01:03:39.993Z,68.60
2018-12-26T01:04:41.030Z,68.80
2018-12-26T01:05:42.075Z,68.70
2018-12-26T01:06:43.173Z,68.70
2018-12-26T01:07:44.207Z,69.20
2018-12-26T01:08:45.238Z,69.30
2018-12-26T01:09:46.282Z,68.90
2018-12-26T01:10:47.314Z,68.90
2018-12-26T01:11:48.345Z,69.00
2018-12-26T01:12:49.380Z,69.10
2018-12-26T01:13:50.408Z,69.50
2018-12-26T01:14:51.446Z,69.10
2018-12-26T01:15:52.519Z,69.30
2018-12-26T01:16:53.593Z,69.20
2018-12-26T01:17:54.608Z,69.20
2018-12-26T01:18:55.645Z,69.10
2018-12-26T01:19:56.669Z,69.20
2018-12-26T01:20:57.684Z,69.00
2018-12-26T01:21:58.704Z,69.10
2018-12-26T01:22:59.725Z,69.00
2018-12-26T01:24:00.749Z,69.10
2018-12-26T01:25:01.771Z,69.30
2018-12-26T01:26:02.788Z,69.00
2018-12-26T01:27:03.812Z,69.90
2018-12-26T01:28:04.820Z,68.80
2018-12-26T01:29:05.864Z,69.00
2018-12-26T01:30:07.093Z,69.10
2018-12-26T01:31:08.113Z,69.20
2018-12-26T01:32:09.133Z,69.00
2018-12-26T01:33:10.204Z,69.50
2018-12-26T01:34:11.256Z,69.50
2018-12-26T01:35:12.268Z,69.10
2018-12-26T01:36:13.319Z,69.00
2018-12-26T01:37:14.353Z,69.00
2018-12-26T01:38:15.381Z,69.20
2018-12-26T01:39:16.411Z,69.40
2018-12-26T01:40:17.449Z,69.50
2018-12-26T01:41:18.477Z,69.50
2018-12-26T01:42:19.533Z,69.60
2018-12-26T01:43:20.560Z,69.90
2018-12-26T01:44:21.584Z,69.70
2018-12-26T01:45:22.612Z,69.50
2018-12-26T01:46:23.629Z,69.50
2018-12-26T01:47:24.658Z,69.00
2018-12-26T01:48:25.669Z,68.90
2018-12-26T01:49:26.701Z,69.00
2018-12-26T01:50:27.727Z,69.40
2018-12-26T01:51:28.744Z,69.40
2018-12-26T01:52:29.778Z,69.50
2018-12-26T01:53:30.805Z,69.50
2018-12-26T01:54:31.847Z,69.60
2018-12-26T01:55:32.870Z,69.50
2018-12-26T01:56:33.898Z,69.70
2018-12-26T01:57:34.921Z,69.70
2018-12-26T01:58:36.052Z,70.00
2018-12-26T01:59:37.069Z,70.10
2018-12-26T02:00:38.089Z,70.40
2018-12-26T02:01:39.109Z,70.30
2018-12-26T02:02:40.152Z,70.30
2018-12-26T02:03:41.165Z,70.30
2018-12-26T02:04:42.197Z,70.10
2018-12-26T02:05:43.233Z,70.40
2018-12-26T02:06:44.252Z,70.20
2018-12-26T02:07:45.274Z,70.20
2018-12-26T02:08:46.298Z,70.30
2018-12-26T02:09:47.320Z,70.40
2018-12-26T02:10:48.341Z,71.10
2018-12-26T02:11:49.360Z,70.40
2018-12-26T02:12:50.381Z,70.20
2018-12-26T02:13:51.385Z,70.10
2018-12-26T02:14:52.416Z,70.30
2018-12-26T02:15:53.441Z,70.40
2018-12-26T02:16:54.461Z,70.50
2018-12-26T02:17:55.473Z,70.50
2018-12-26T02:18:56.497Z,70.40
2018-12-26T02:19:57.621Z,70.50
2018-12-26T02:20:58.736Z,70.50
2018-12-26T02:21:59.773Z,70.60
2018-12-26T02:23:00.797Z,70.80
2018-12-26T02:24:01.809Z,70.80
2018-12-26T02:25:03.141Z,70.70
2018-12-26T02:26:04.172Z,70.80
2018-12-26T02:27:05.337Z,70.70
2018-12-26T02:28:06.367Z,70.60
2018-12-26T02:29:07.431Z,70.50
2018-12-26T02:30:08.472Z,70.50
2018-12-26T02:31:09.482Z,70.60
2018-12-26T02:32:10.509Z,70.60
2018-12-26T02:33:11.522Z,70.30
2018-12-26T02:34:12.546Z,70.40
2018-12-26T02:35:13.577Z,70.30
2018-12-26T02:36:14.612Z,70.30
2018-12-26T02:37:15.634Z,70.30
2018-12-26T02:38:16.645Z,70.40
2018-12-26T02:39:17.670Z,70.30
2018-12-26T02:40:18.688Z,70.40
2018-12-26T02:41:19.705Z,70.50
2018-12-26T02:42:20.725Z,70.20
2018-12-26T02:43:21.747Z,70.30
2018-12-26T02:44:22.761Z,70.30
2018-12-26T02:45:23.789Z,70.40
2018-12-26T02:46:24.806Z,70.40
2018-12-26T02:47:25.826Z,70.30
2018-12-26T02:48:26.840Z,70.20
2018-12-26T02:49:27.866Z,70.30
2018-12-26T02:50:28.892Z,70.60
2018-12-26T02:51:29.933Z,70.10
2018-12-26T02:52:30.960Z,69.90
2018-12-26T02:53:31.969Z,69.80
2018-12-26T02:54:32.989Z,69.40
2018-12-26T02:55:34.023Z,69.40
2018-12-26T02:56:35.148Z,69.70
2018-12-26T02:57:36.165Z,69.20
2018-12-26T02:58:37.186Z,69.10
2018-12-26T02:59:38.205Z,69.00
2018-12-26T03:00:39.232Z,69.00
2018-12-26T03:01:40.249Z,68.60
2018-12-26T03:02:41.376Z,68.90
2018-12-26T03:03:42.395Z,69.30
2018-12-26T03:04:43.429Z,69.30
2018-12-26T03:05:44.448Z,69.10
2018-12-26T03:06:45.467Z,69.30
2018-12-26T03:07:46.484Z,69.40
2018-12-26T03:08:47.518Z,69.50
2018-12-26T03:09:48.548Z,69.30
2018-12-26T03:10:49.613Z,69.50
2018-12-26T03:11:50.790Z,69.60
2018-12-26T03:12:51.813Z,69.70
2018-12-26T03:13:52.842Z,69.90
2018-12-26T03:14:53.857Z,69.80
2018-12-26T03:15:54.888Z,69.90
2018-12-26T03:16:55.908Z,70.10
2018-12-26T03:17:56.925Z,70.10
2018-12-26T03:18:57.950Z,70.10
2018-12-26T03:19:59.076Z,69.80
2018-12-26T03:21:00.093Z,70.00
2018-12-26T03:22:01.119Z,70.00
2018-12-26T03:23:02.127Z,69.90
2018-12-26T03:24:03.150Z,69.60
2018-12-26T03:25:04.360Z,69.30
2018-12-26T03:26:05.401Z,69.80
2018-12-26T03:27:06.414Z,69.10
2018-12-26T03:28:07.452Z,69.20
2018-12-26T03:29:08.560Z,69.90
2018-12-26T03:30:09.615Z,69.10
2018-12-26T03:31:10.740Z,69.10
2018-12-26T03:32:11.856Z,69.70
2018-12-26T03:33:12.866Z,69.10
2018-12-26T03:34:13.899Z,69.10
2018-12-26T03:35:14.923Z,69.00
2018-12-26T03:36:16.261Z,69.10
2018-12-26T03:37:17.285Z,68.90
2018-12-26T03:38:18.317Z,69.10
2018-12-26T03:39:19.433Z,69.30
2018-12-26T03:40:20.549Z,69.30
2018-12-26T03:41:21.685Z,69.50
2018-12-26T03:42:22.792Z,69.00
2018-12-26T03:43:23.933Z,69.40
2018-12-26T03:44:24.973Z,69.90
2018-12-26T03:45:26.691Z,69.00
2018-12-26T03:46:28.208Z,69.10
2018-12-26T03:47:30.043Z,69.00
2018-12-26T03:48:31.047Z,68.70
2018-12-26T03:49:32.059Z,68.60
2018-12-26T03:50:33.086Z,68.40
2018-12-26T03:51:34.100Z,68.40
2018-12-26T03:52:35.131Z,68.00
2018-12-26T03:53:36.244Z,68.20
2018-12-26T03:54:37.268Z,68.60
2018-12-26T03:55:38.297Z,68.60
2018-12-26T03:56:39.328Z,68.70
2018-12-26T03:57:40.345Z,68.60
2018-12-26T03:58:41.360Z,69.10
2018-12-26T03:59:42.380Z,69.10
2018-12-26T04:00:43.405Z,68.60
2018-12-26T04:01:44.664Z,69.10
2018-12-26T04:02:45.685Z,69.00
2018-12-26T04:03:46.704Z,69.10
2018-12-26T04:04:47.731Z,69.10
2018-12-26T04:05:48.755Z,68.80
2018-12-26T04:06:49.773Z,69.10
2018-12-26T04:07:51.106Z,69.10
2018-12-26T04:08:52.116Z,68.80
2018-12-26T04:09:53.142Z,69.00
2018-12-26T04:10:54.366Z,68.90
2018-12-26T04:11:55.425Z,68.90
2018-12-26T04:12:56.444Z,68.70
2018-12-26T04:13:57.574Z,68.30
2018-12-26T04:14:58.701Z,68.30
2018-12-26T04:15:59.728Z,68.20
2018-12-26T04:17:00.844Z,67.90
2018-12-26T04:18:02.053Z,68.10
2018-12-26T04:19:03.180Z,68.20
2018-12-26T04:20:04.584Z,67.30
2018-12-26T04:21:05.612Z,67.50
2018-12-26T04:22:06.738Z,67.60
2018-12-26T04:23:08.115Z,67.60
2018-12-26T04:24:09.361Z,67.80
2018-12-26T04:25:10.583Z,67.90
2018-12-26T04:26:11.605Z,68.30
2018-12-26T04:27:15.566Z,68.20
2018-12-26T04:28:15.647Z,67.90
2018-12-26T04:29:16.696Z,68.20
2018-12-26T04:30:17.711Z,68.30
2018-12-26T04:31:18.740Z,68.90
2018-12-26T04:32:19.758Z,68.90
2018-12-26T04:33:20.769Z,69.10
2018-12-26T04:34:21.785Z,69.20
2018-12-26T04:35:22.806Z,69.70
2018-12-26T04:36:23.850Z,70.20
2018-12-26T04:37:24.866Z,70.40
2018-12-26T04:38:25.889Z,70.40
2018-12-26T04:39:26.909Z,70.50
2018-12-26T04:40:27.925Z,70.80
2018-12-26T04:41:28.961Z,71.00
2018-12-26T04:42:29.978Z,70.80
2018-12-26T04:43:30.992Z,70.90
2018-12-26T04:44:32.115Z,70.90
2018-12-26T04:45:33.133Z,71.10
2018-12-26T04:46:34.161Z,71.30
2018-12-26T04:47:35.184Z,71.10
2018-12-26T04:48:36.192Z,71.20
2018-12-26T04:49:37.216Z,71.30
2018-12-26T04:50:38.244Z,71.40
2018-12-26T04:51:39.292Z,71.60
2018-12-26T04:52:40.304Z,71.60
2018-12-26T04:53:41.316Z,71.20
2018-12-26T04:54:42.337Z,71.00
2018-12-26T04:55:43.361Z,71.00
2018-12-26T04:56:44.401Z,71.00
2018-12-26T04:57:45.421Z,71.00
2018-12-26T04:58:46.852Z,71.00
2018-12-26T04:59:47.873Z,71.00
2018-12-26T05:00:49.092Z,71.00
2018-12-26T05:01:50.109Z,70.80
2018-12-26T05:02:51.129Z,70.70
2018-12-26T05:03:52.149Z,70.60
2018-12-26T05:04:53.167Z,70.60
2018-12-26T05:05:54.183Z,70.60
2018-12-26T05:06:55.205Z,70.80
2018-12-26T05:07:56.222Z,70.60
2018-12-26T05:08:57.240Z,70.50
2018-12-26T05:09:58.249Z,70.60
2018-12-26T05:10:59.271Z,70.70
2018-12-26T05:12:00.312Z,70.90
2018-12-26T05:13:01.432Z,70.90
2018-12-26T05:14:02.452Z,71.00
2018-12-26T05:15:03.769Z,71.10
2018-12-26T05:16:04.788Z,71.10
2018-12-26T05:17:05.817Z,70.80
2018-12-26T05:18:06.835Z,70.60
2018-12-26T05:19:08.079Z,70.70
2018-12-26T05:20:09.104Z,70.60
2018-12-26T05:21:10.139Z,70.80
2018-12-26T05:22:11.161Z,70.60
2018-12-26T05:23:12.276Z,70.80
2018-12-26T05:24:13.392Z,70.80
2018-12-26T05:25:14.508Z,70.50
2018-12-26T05:26:15.536Z,70.30
2018-12-26T05:27:16.557Z,70.60
2018-12-26T05:28:17.586Z,70.60
2018-12-26T05:29:18.606Z,70.80
2018-12-26T05:30:19.628Z,70.90
2018-12-26T05:31:20.657Z,70.90
2018-12-26T05:32:21.681Z,70.90
2018-12-26T05:33:22.701Z,71.10
2018-12-26T05:34:23.708Z,71.30
2018-12-26T05:35:24.724Z,71.30
2018-12-26T05:36:25.765Z,71.20
2018-12-26T05:37:26.786Z,71.40
2018-12-26T05:38:27.811Z,71.50
2018-12-26T05:39:28.829Z,71.60
2018-12-26T05:40:29.853Z,71.80
2018-12-26T05:41:30.890Z,71.80
2018-12-26T05:42:31.916Z,71.30
2018-12-26T05:43:32.932Z,71.20
2018-12-26T05:44:33.953Z,71.70
2018-12-26T05:45:34.976Z,71.50
2018-12-26T05:46:36.011Z,71.00
2018-12-26T05:47:37.024Z,71.20
2018-12-26T05:48:38.045Z,71.10
2018-12-26T05:49:39.100Z,71.30
2018-12-26T05:50:40.116Z,71.10
2018-12-26T05:51:41.169Z,70.80
2018-12-26T05:52:42.190Z,71.20
2018-12-26T05:53:43.213Z,71.20
2018-12-26T05:54:44.465Z,71.20
2018-12-26T05:55:45.488Z,71.00
2018-12-26T05:56:46.509Z,71.00
2018-12-26T05:57:47.533Z,70.70
2018-12-26T05:58:48.559Z,70.50
2018-12-26T05:59:49.585Z,70.50
2018-12-26T06:00:50.614Z,70.50
2018-12-26T06:01:51.656Z,70.70
2018-12-26T06:02:52.817Z,70.80
2018-12-26T06:03:53.838Z,70.50
2018-12-26T06:04:54.860Z,70.30
2018-12-26T06:05:55.893Z,70.70
2018-12-26T06:06:56.908Z,69.80
2018-12-26T06:07:57.929Z,70.00
2018-12-26T06:08:58.948Z,69.90
2018-12-26T06:09:59.989Z,70.20
2018-12-26T06:11:01.009Z,70.10
2018-12-26T06:12:02.046Z,70.30
2018-12-26T06:13:03.057Z,70.50
2018-12-26T06:14:04.084Z,70.70
2018-12-26T06:15:05.105Z,70.30
2018-12-26T06:16:06.120Z,70.20
2018-12-26T06:17:07.172Z,70.40
2018-12-26T06:18:08.354Z,70.20
2018-12-26T06:19:09.509Z,70.10
2018-12-26T06:20:10.524Z,70.20
2018-12-26T06:21:11.553Z,70.30
2018-12-26T06:22:12.582Z,70.30
2018-12-26T06:23:13.593Z,70.80
2018-12-26T06:24:14.617Z,70.80
2018-12-26T06:25:15.639Z,70.80
2018-12-26T06:26:16.654Z,71.20
2018-12-26T06:27:17.674Z,71.30
2018-12-26T06:28:18.704Z,71.40
2018-12-26T06:29:19.724Z,71.60
2018-12-26T06:30:20.749Z,71.60
2018-12-26T06:31:21.768Z,71.70
2018-12-26T06:32:24.112Z,71.60
2018-12-26T06:33:25.429Z,71.80
2018-12-26T06:34:26.461Z,71.70
2018-12-26T06:35:27.487Z,71.90
2018-12-26T06:36:28.504Z,72.00
2018-12-26T06:37:29.724Z,72.00
2018-12-26T06:38:30.797Z,72.80
2018-12-26T06:39:31.827Z,71.90
2018-12-26T06:40:32.840Z,72.00
2018-12-26T06:41:33.859Z,72.20
2018-12-26T06:42:34.876Z,72.20
2018-12-26T06:43:35.900Z,72.20
2018-12-26T06:44:36.914Z,72.30
2018-12-26T06:45:37.964Z,72.60
2018-12-26T06:46:39.001Z,72.80
2018-12-26T06:47:40.021Z,73.10
2018-12-26T06:48:41.329Z,73.10
2018-12-26T06:49:42.349Z,73.20
2018-12-26T06:50:43.373Z,73.20
2018-12-26T06:51:44.397Z,73.30
2018-12-26T06:52:45.439Z,73.40
2018-12-26T06:53:46.539Z,73.10
2018-12-26T06:54:47.557Z,73.10
2018-12-26T06:55:48.671Z,72.80
2018-12-26T06:56:49.709Z,72.70
2018-12-26T06:57:50.729Z,72.50
2018-12-26T06:58:51.753Z,72.50
2018-12-26T06:59:52.771Z,72.30
2018-12-26T07:00:53.789Z,72.10
2018-12-26T07:01:54.820Z,71.80
2018-12-26T07:02:55.854Z,71.40
2018-12-26T07:03:56.880Z,71.30
2018-12-26T07:04:58.025Z,71.50
2018-12-26T07:05:59.044Z,71.10
2018-12-26T07:07:00.100Z,71.20
2018-12-26T07:08:01.192Z,71.30
2018-12-26T07:09:03.516Z,71.60
2018-12-26T07:10:04.544Z,71.80
2018-12-26T07:11:05.562Z,71.90
2018-12-26T07:12:06.584Z,72.80
2018-12-26T07:13:07.600Z,71.90
2018-12-26T07:14:08.626Z,71.90
2018-12-26T07:15:09.640Z,71.60
2018-12-26T07:16:10.664Z,71.00
2018-12-26T07:17:11.715Z,71.00
2018-12-26T07:18:12.756Z,71.00
2018-12-26T07:19:13.781Z,71.00
2018-12-26T07:20:14.785Z,70.50
2018-12-26T07:21:15.801Z,70.40
2018-12-26T07:22:16.828Z,70.30
2018-12-26T07:23:17.884Z,70.80
2018-12-26T07:24:18.981Z,70.90
2018-12-26T07:25:20.009Z,70.40
2018-12-26T07:26:21.017Z,70.90
2018-12-26T07:27:22.051Z,70.90
2018-12-26T07:28:23.077Z,70.90
2018-12-26T07:29:24.100Z,71.30
2018-12-26T07:30:25.120Z,71.60
2018-12-26T07:31:26.133Z,71.60
2018-12-26T07:32:27.169Z,71.50
2018-12-26T07:33:28.208Z,71.10
2018-12-26T07:34:29.229Z,71.30
2018-12-26T07:35:30.252Z,71.10
2018-12-26T07:36:31.309Z,71.10
2018-12-26T07:37:32.337Z,71.50
2018-12-26T07:38:33.356Z,71.40
2018-12-26T07:39:34.372Z,71.10
2018-12-26T07:40:35.396Z,71.20
2018-12-26T07:41:36.477Z,71.30
2018-12-26T07:42:37.556Z,72.00
2018-12-26T07:43:38.604Z,72.00
2018-12-26T07:44:39.623Z,72.10
2018-12-26T07:45:40.641Z,71.80
2018-12-26T07:46:41.653Z,72.20
2018-12-26T07:47:42.684Z,72.80
2018-12-26T07:48:43.715Z,72.90
2018-12-26T07:49:44.738Z,72.50
2018-12-26T07:50:45.753Z,72.80
2018-12-26T07:51:46.893Z,73.00
2018-12-26T07:52:47.908Z,73.00
2018-12-26T07:53:48.940Z,73.20
2018-12-26T07:54:49.949Z,73.00
2018-12-26T07:55:50.976Z,72.80
2018-12-26T07:56:51.997Z,73.20
2018-12-26T07:57:53.021Z,73.50
2018-12-26T07:58:54.045Z,73.60
2018-12-26T07:59:55.065Z,73.30
2018-12-26T08:00:56.080Z,73.30
2018-12-26T08:01:57.101Z,73.50
2018-12-26T08:02:58.125Z,73.40
2018-12-26T08:03:59.149Z,73.40
2018-12-26T08:05:00.311Z,73.50
2018-12-26T08:06:01.393Z,73.60
2018-12-26T08:07:02.425Z,73.60
2018-12-26T08:08:03.458Z,73.60
2018-12-26T08:09:04.774Z,73.90
2018-12-26T08:10:06.293Z,74.40
2018-12-26T08:11:07.312Z,74.50
2018-12-26T08:12:08.337Z,74.40
2018-12-26T08:13:09.616Z,74.40
2018-12-26T08:14:10.639Z,74.40
2018-12-26T08:15:11.652Z,74.40
2018-12-26T08:16:12.676Z,74.40
2018-12-26T08:17:13.700Z,74.40
2018-12-26T08:18:14.721Z,74.40
2018-12-26T08:19:15.741Z,74.40
2018-12-26T08:20:16.753Z,74.40
2018-12-26T08:21:17.774Z,74.40
2018-12-26T08:22:18.829Z,74.50
2018-12-26T08:23:19.845Z,74.50
2018-12-26T08:24:20.862Z,74.50
2018-12-26T08:25:21.895Z,74.30
2018-12-26T08:26:23.027Z,73.40
2018-12-26T08:27:24.036Z,73.20
2018-12-26T08:28:26.717Z,73.20
2018-12-26T08:29:27.990Z,73.20
2018-12-26T08:30:29.004Z,73.90
2018-12-26T08:31:30.029Z,74.00
2018-12-26T08:32:31.056Z,74.00
2018-12-26T08:33:32.078Z,74.40
2018-12-26T08:34:33.093Z,74.00
2018-12-26T08:35:34.117Z,73.30
2018-12-26T08:36:35.144Z,73.40
2018-12-26T08:37:36.180Z,73.20
2018-12-26T08:38:37.198Z,72.90
2018-12-26T08:39:38.221Z,73.30
2018-12-26T08:40:39.243Z,73.30
2018-12-26T08:41:40.257Z,72.80
2018-12-26T08:42:41.285Z,72.30
2018-12-26T08:43:42.306Z,72.00
2018-12-26T08:44:43.328Z,72.10
2018-12-26T08:45:44.362Z,71.70
2018-12-26T08:46:45.380Z,71.60
2018-12-26T08:47:46.401Z,71.50
2018-12-26T08:48:47.416Z,71.50
2018-12-26T08:49:48.437Z,71.50
2018-12-26T08:50:49.459Z,71.20
2018-12-26T08:51:50.478Z,70.60
2018-12-26T08:52:51.501Z,70.70
2018-12-26T08:53:52.541Z,70.50
2018-12-26T08:54:53.557Z,71.00
2018-12-26T08:55:54.578Z,71.20
2018-12-26T08:56:55.609Z,71.10
2018-12-26T08:57:56.647Z,71.20
2018-12-26T08:58:57.665Z,71.10
2018-12-26T08:59:58.680Z,71.10
2018-12-26T09:00:59.713Z,70.50
2018-12-26T09:02:00.844Z,70.60
2018-12-26T09:03:01.875Z,70.40
2018-12-26T09:04:02.916Z,70.50
2018-12-26T09:05:04.833Z,70.30
2018-12-26T09:06:05.858Z,70.40
2018-12-26T09:07:06.869Z,69.70
2018-12-26T09:08:07.899Z,69.90
2018-12-26T09:09:08.918Z,70.00
2018-12-26T09:10:09.932Z,70.20
2018-12-26T09:11:10.956Z,70.10
2018-12-26T09:12:12.001Z,70.10
2018-12-26T09:13:13.033Z,69.50
2018-12-26T09:14:14.054Z,69.70
2018-12-26T09:15:15.184Z,69.60
2018-12-26T09:16:16.197Z,69.70
2018-12-26T09:17:17.259Z,69.70
2018-12-26T09:18:18.290Z,69.70
2018-12-26T09:19:19.326Z,69.50
2018-12-26T09:20:20.324Z,69.40
2018-12-26T09:21:21.348Z,69.20
2018-12-26T09:22:22.360Z,69.20
2018-12-26T09:23:23.388Z,69.60
2018-12-26T09:24:24.413Z,69.90
2018-12-26T09:25:25.733Z,69.20
2018-12-26T09:26:27.353Z,69.40
2018-12-26T09:27:28.977Z,69.00
2018-12-26T09:28:30.004Z,69.30
2018-12-26T09:29:31.021Z,70.10
2018-12-26T09:30:32.044Z,69.30
2018-12-26T09:31:33.104Z,69.70
2018-12-26T09:32:34.124Z,69.80
2018-12-26T09:33:35.161Z,69.60
2018-12-26T09:34:36.182Z,69.60
2018-12-26T09:35:37.205Z,70.20
2018-12-26T09:36:38.341Z,69.40
2018-12-26T09:37:39.369Z,69.30
2018-12-26T09:38:40.443Z,69.20
2018-12-26T09:39:41.465Z,69.10
2018-12-26T09:40:42.480Z,69.70
2018-12-26T09:41:43.507Z,69.30
2018-12-26T09:42:44.616Z,69.00
2018-12-26T09:43:45.652Z,68.80
2018-12-26T09:44:54.171Z,68.70
2018-12-26T09:45:49.610Z,68.40
2018-12-26T09:46:50.626Z,68.20
2018-12-26T09:47:51.649Z,68.40
2018-12-26T09:48:52.672Z,68.70
2018-12-26T09:49:53.694Z,68.80
2018-12-26T09:50:54.712Z,68.80
2018-12-26T09:51:55.736Z,68.80
2018-12-26T09:52:56.764Z,69.10
2018-12-26T09:53:57.800Z,69.20
2018-12-26T09:54:58.825Z,69.80
2018-12-26T09:55:59.846Z,70.30
2018-12-26T09:57:00.904Z,70.50
2018-12-26T09:58:02.006Z,70.60
2018-12-26T09:59:03.369Z,71.40
2018-12-26T10:00:07.212Z,71.00
2018-12-26T10:01:08.273Z,70.80
2018-12-26T10:02:09.361Z,71.00
2018-12-26T10:03:10.381Z,70.80
2018-12-26T10:04:11.411Z,71.00
2018-12-26T10:05:12.460Z,71.00
2018-12-26T10:06:13.472Z,70.80
2018-12-26T10:07:14.525Z,70.90
2018-12-26T10:08:15.635Z,71.20
2018-12-26T10:09:16.645Z,70.90
2018-12-26T10:10:17.668Z,70.90
2018-12-26T10:11:18.701Z,70.90
2018-12-26T10:12:19.712Z,71.10
2018-12-26T10:13:20.745Z,72.00
2018-12-26T10:14:21.753Z,71.50
2018-12-26T10:15:22.770Z,70.80
2018-12-26T10:16:23.788Z,70.80
2018-12-26T10:17:24.812Z,71.00
2018-12-26T10:18:25.838Z,70.80
2018-12-26T10:19:26.864Z,70.80
2018-12-26T10:20:27.877Z,70.90
2018-12-26T10:21:28.901Z,70.80
2018-12-26T10:22:29.920Z,70.80
2018-12-26T10:23:30.956Z,71.20
2018-12-26T10:24:31.984Z,71.20
2018-12-26T10:25:33.004Z,70.40
2018-12-26T10:26:34.021Z,70.50
2018-12-26T10:27:35.033Z,70.80
2018-12-26T10:28:36.066Z,70.70
2018-12-26T10:29:37.088Z,70.30
2018-12-26T10:30:38.121Z,70.40
2018-12-26T10:31:39.159Z,69.80
2018-12-26T10:32:40.164Z,69.60
2018-12-26T10:33:41.207Z,70.10
2018-12-26T10:34:42.216Z,70.00
2018-12-26T10:35:43.245Z,69.80
2018-12-26T10:36:44.277Z,70.40
2018-12-26T10:37:45.297Z,69.70
2018-12-26T10:38:46.326Z,69.20
2018-12-26T10:39:47.349Z,69.30
2018-12-26T10:40:48.376Z,69.20
2018-12-26T10:41:49.399Z,69.00
2018-12-26T10:42:50.452Z,69.10
2018-12-26T10:43:51.583Z,69.10
2018-12-26T10:44:52.599Z,68.50
2018-12-26T10:45:53.610Z,68.50
2018-12-26T10:46:54.628Z,68.70
2018-12-26T10:47:55.652Z,67.70
2018-12-26T10:48:56.682Z,67.30
2018-12-26T10:49:57.705Z,67.50
2018-12-26T10:50:58.717Z,68.20
2018-12-26T10:51:59.729Z,68.60
2018-12-26T10:53:00.956Z,68.80
2018-12-26T10:54:02.005Z,68.50
2018-12-26T10:55:03.938Z,68.40
2018-12-26T10:56:04.983Z,68.20
2018-12-26T10:57:06.003Z,68.10
2018-12-26T10:58:07.528Z,67.90
2018-12-26T10:59:10.358Z,67.90
2018-12-26T11:00:11.588Z,67.80
2018-12-26T11:01:12.604Z,67.70
2018-12-26T11:02:13.630Z,67.40
2018-12-26T11:03:14.649Z,67.50
2018-12-26T11:04:15.681Z,67.50
2018-12-26T11:05:16.994Z,66.80
2018-12-26T11:06:18.016Z,67.20
2018-12-26T11:07:19.028Z,66.90
2018-12-26T11:08:20.056Z,66.90
2018-12-26T11:09:21.082Z,66.80
2018-12-26T11:10:22.109Z,66.90
2018-12-26T11:11:23.125Z,66.90
2018-12-26T11:12:25.513Z,66.90
2018-12-26T11:13:26.541Z,66.90
2018-12-26T11:14:27.552Z,66.30
2018-12-26T11:15:28.580Z,66.10
2018-12-26T11:16:29.708Z,66.70
2018-12-26T11:17:30.832Z,66.40
2018-12-26T11:18:31.851Z,66.10
2018-12-26T11:19:33.268Z,65.50
2018-12-26T11:20:34.292Z,65.60
2018-12-26T11:21:35.320Z,65.70
2018-12-26T11:22:36.332Z,66.20
2018-12-26T11:23:37.358Z,66.30
2018-12-26T11:24:38.477Z,66.30
2018-12-26T11:25:39.500Z,66.70
2018-12-26T11:26:40.512Z,66.80
2018-12-26T11:27:41.536Z,66.80
2018-12-26T11:28:42.568Z,66.70
2018-12-26T11:29:43.593Z,65.80
2018-12-26T11:30:44.782Z,66.10
2018-12-26T11:31:45.880Z,66.60
2018-12-26T11:32:46.911Z,65.90
2018-12-26T11:33:47.933Z,65.90
2018-12-26T11:34:48.954Z,66.50
2018-12-26T11:35:49.985Z,66.60
2018-12-26T11:36:51.018Z,66.40
2018-12-26T11:37:52.157Z,66.60
2018-12-26T11:38:53.496Z,66.30
2018-12-26T11:39:54.536Z,67.00
2018-12-26T11:40:55.552Z,66.60
2018-12-26T11:41:56.572Z,66.70
2018-12-26T11:42:57.592Z,66.70
2018-12-26T11:43:58.616Z,66.30
2018-12-26T11:44:59.646Z,66.30
2018-12-26T11:46:00.666Z,66.60
2018-12-26T11:47:01.682Z,66.50
2018-12-26T11:48:02.700Z,66.60
2018-12-26T11:49:03.749Z,66.70
2018-12-26T11:50:06.265Z,66.60
2018-12-26T11:51:07.460Z,66.70
2018-12-26T11:52:08.478Z,66.60
2018-12-26T11:53:09.521Z,66.70
2018-12-26T11:54:10.549Z,66.60
2018-12-26T11:55:11.569Z,66.70
2018-12-26T11:56:12.588Z,66.70
2018-12-26T11:57:13.613Z,66.70
2018-12-26T11:58:14.641Z,66.80
2018-12-26T11:59:15.903Z,66.80
2018-12-26T12:00:17.186Z,66.90
2018-12-26T12:01:18.209Z,66.30
2018-12-26T12:02:20.654Z,66.80
2018-12-26T12:03:21.953Z,66.80
2018-12-26T12:04:22.994Z,66.20
2018-12-26T12:05:24.013Z,65.20
2018-12-26T12:06:25.046Z,65.40
2018-12-26T12:07:26.350Z,65.30
2018-12-26T12:08:27.377Z,65.30
2018-12-26T12:09:28.408Z,65.50
2018-12-26T12:10:29.429Z,65.40
2018-12-26T12:11:30.552Z,66.00
2018-12-26T12:12:31.580Z,65.50
2018-12-26T12:13:32.600Z,65.90
2018-12-26T12:14:33.635Z,66.30
2018-12-26T12:15:34.669Z,66.30
2018-12-26T12:16:35.705Z,66.10
2018-12-26T12:17:36.704Z,66.20
2018-12-26T12:18:37.728Z,65.90
2018-12-26T12:19:38.763Z,65.20
2018-12-26T12:20:39.773Z,65.30
2018-12-26T12:21:40.796Z,66.00
2018-12-26T12:22:41.820Z,66.70
2018-12-26T12:23:42.881Z,66.50
2018-12-26T12:24:43.930Z,65.80
2018-12-26T12:25:44.955Z,66.20
2018-12-26T12:26:45.973Z,66.20
2018-12-26T12:27:47.000Z,65.90
2018-12-26T12:28:48.027Z,66.60
2018-12-26T12:29:49.049Z,66.10
2018-12-26T12:30:50.090Z,66.60
2018-12-26T12:31:51.136Z,66.60
2018-12-26T12:32:52.167Z,66.20
2018-12-26T12:33:53.247Z,66.60
2018-12-26T12:34:54.344Z,66.50
2018-12-26T12:35:55.365Z,66.90
2018-12-26T12:36:56.396Z,66.50
2018-12-26T12:37:57.513Z,66.50
2018-12-26T12:38:58.546Z,66.50
2018-12-26T12:39:59.565Z,66.50
2018-12-26T12:41:00.589Z,66.50
2018-12-26T12:42:01.618Z,66.60
2018-12-26T12:43:02.650Z,66.70
2018-12-26T12:44:03.681Z,66.70
2018-12-26T12:45:06.202Z,66.70
2018-12-26T12:46:07.327Z,66.70
2018-12-26T12:47:08.445Z,66.70
2018-12-26T12:48:09.476Z,66.60
2018-12-26T12:49:10.500Z,66.70
2018-12-26T12:50:11.686Z,66.70
2018-12-26T12:51:12.706Z,66.20
2018-12-26T12:52:13.768Z,66.70
2018-12-26T12:53:14.802Z,66.70
2018-12-26T12:54:15.844Z,65.90
2018-12-26T12:55:16.876Z,66.40
2018-12-26T12:56:18.012Z,66.10
2018-12-26T12:57:19.053Z,66.10
2018-12-26T12:58:20.073Z,66.70
2018-12-26T12:59:21.218Z,66.30
2018-12-26T13:00:22.233Z,66.10
2018-12-26T13:01:23.251Z,65.80
2018-12-26T13:02:24.389Z,66.10
2018-12-26T13:03:25.509Z,66.90
2018-12-26T13:04:26.538Z,67.00
2018-12-26T13:05:27.665Z,65.90
2018-12-26T13:06:28.710Z,66.00